Terminal Aerodrome Forecast
Issued by NWS

Home | Current Version | Previous Version | Text Only | Print | Product List | Glossary On
Versions: 1 2 3 4 5 6 7 8 9 10 11 12 13 14 15 16 17 18 19 20 21 22 23 24 25 26 27 28 29 30 31 32 33
000
FTUS44 KMOB 281700 RRA
TAFBFM
TAF
KBFM 281750Z 2818/2918 18004KT 4SM BR BKN002 BKN010
     FM290300 36010KT 2SM BR OVC009
      TEMPO 2904/2908 2SM -RA OVC004
     FM291500 01006KT 2SM BR OVC004=

USA.gov is the U.S. government's official web portal to all federal, state and local government web resources and services.